Aeroporto :
LOGIN :

Iscrizione | Disclaimer

   EN    FR    IT 

 










Sommario :    VFR   VFR Marginale   IFR   IFR Intensivo   IFR Molto Intensivo
Visibilità : 
Base nubi : 
>= 8 km
>= 3000ft
5 / 8 km
1000 / 3000 ft
1500m / 5 km
500 / 1000 ft
800 / 1500m
200 / 500 ft
< 800m
< 200 ft
Simboli :   Temporali  Nebbia  Neve Forte  Precipitazioni Forti  Vento > 20 kt
SIGMETs :   Varie  Temporali  Ghiacco  Turbolenza  Onda orograficha  Ceneri Vulcaniche






- Altitudine del aeroporto : 1768 ft


LEHC - Huesca Pirineos

ULTIMO METAR :
  • 161130Z 27004KT 9999 FEW030 28/11 Q1019

METARs OBSOLETI :
  • 161100Z 24005KT CAVOK 28/11 Q1019
  • 161030Z 25005G18KT CAVOK 27/11 Q1019
  • 161000Z VRB05KT CAVOK 26/12 Q1019
  • 160930Z 23005KT 170V300 CAVOK 25/14 Q1019
  • 160900Z 24005KT 190V310 CAVOK 24/12 Q1018
  • 160830Z 26006KT 230V310 CAVOK 23/12 Q1019
  • 160800Z 26007KT 220V300 CAVOK 22/12 Q1019
  • 160730Z 27007KT 230V310 CAVOK 21/12 Q1018
  • 160700Z 26008KT 230V310 CAVOK 19/12 Q1018

TAF TAF LEHC
Valido dal 16 a 09 ore il 17 a 09 ore UTC


160800Z 1609/1709 25007KT CAVOK TX33/1614Z TN20/1705Z
BECMG 1620/1623 10010KT



MetMap, La meteo Aeronautica in un colpo d'occhio ! - Copyright ORBIFLY Dicembre 2007 - Disclaimer

ORBIFLY MET'MAP TEAM :

Programmazione e sviluppo : Alexandra Zaïnal
Concezione : Baudouin d'Aumeries
Supporto tecnico e logistico : Manuel Goepfert
Aiuto : Marc-Olivier Méhu
Aiuto per la traduzione : Arnaldo La Scala




FONTI E CREDITI :

   NOAA